sensor_id;sensor_type;location;lat;lon;timestamp;P1;durP1;ratioP1;P2;durP2;ratioP2
22449;SDS011;11392;57.390;-2.468;2022-11-15T00:01:08;40.30;;;24.92;;
22449;SDS011;11392;57.390;-2.468;2022-11-15T00:03:36;41.28;;;24.80;;
22449;SDS011;11392;57.390;-2.468;2022-11-15T00:06:03;37.97;;;24.27;;
22449;SDS011;11392;57.390;-2.468;2022-11-15T00:08:31;40.15;;;23.20;;
22449;SDS011;11392;57.390;-2.468;2022-11-15T00:10:59;40.38;;;23.67;;
22449;SDS011;11392;57.390;-2.468;2022-11-15T00:13:27;38.22;;;24.45;;
22449;SDS011;11392;57.390;-2.468;2022-11-15T00:15:56;39.28;;;25.23;;
22449;SDS011;11392;57.390;-2.468;2022-11-15T00:18:24;43.05;;;24.92;;
22449;SDS011;11392;57.390;-2.468;2022-11-15T00:20:52;42.25;;;25.35;;
22449;SDS011;11392;57.390;-2.468;2022-11-15T00:23:19;41.42;;;24.63;;
22449;SDS011;11392;57.390;-2.468;2022-11-15T00:25:46;41.45;;;25.30;;
22449;SDS011;11392;57.390;-2.468;2022-11-15T00:28:13;41.08;;;24.98;;
22449;SDS011;11392;57.390;-2.468;2022-11-15T00:30:39;41.55;;;25.33;;
22449;SDS011;11392;57.390;-2.468;2022-11-15T00:33:07;44.58;;;27.50;;
22449;SDS011;11392;57.390;-2.468;2022-11-15T00:35:35;42.85;;;24.70;;
22449;SDS011;11392;57.390;-2.468;2022-11-15T00:38:02;41.72;;;25.95;;
22449;SDS011;11392;57.390;-2.468;2022-11-15T00:40:29;41.13;;;26.67;;
22449;SDS011;11392;57.390;-2.468;2022-11-15T00:42:56;41.65;;;26.77;;
22449;SDS011;11392;57.390;-2.468;2022-11-15T00:45:24;43.67;;;27.37;;
22449;SDS011;11392;57.390;-2.468;2022-11-15T00:47:52;41.20;;;27.05;;
22449;SDS011;11392;57.390;-2.468;2022-11-15T00:50:19;43.13;;;28.30;;
22449;SDS011;11392;57.390;-2.468;2022-11-15T00:52:46;44.08;;;27.50;;
22449;SDS011;11392;57.390;-2.468;2022-11-15T00:55:14;46.83;;;28.60;;
22449;SDS011;11392;57.390;-2.468;2022-11-15T00:57:45;47.72;;;28.70;;
22449;SDS011;11392;57.390;-2.468;2022-11-15T01:00:12;40.88;;;27.35;;
22449;SDS011;11392;57.390;-2.468;2022-11-15T01:02:40;38.75;;;27.08;;
22449;SDS011;11392;57.390;-2.468;2022-11-15T01:05:07;45.80;;;28.67;;
22449;SDS011;11392;57.390;-2.468;2022-11-15T01:07:34;51.53;;;30.85;;
22449;SDS011;11392;57.390;-2.468;2022-11-15T01:10:02;50.40;;;29.55;;
22449;SDS011;11392;57.390;-2.468;2022-11-15T01:12:29;51.00;;;29.35;;
22449;SDS011;11392;57.390;-2.468;2022-11-15T01:14:56;45.78;;;29.58;;
22449;SDS011;11392;57.390;-2.468;2022-11-15T01:17:23;49.60;;;31.23;;
22449;SDS011;11392;57.390;-2.468;2022-11-15T01:19:50;50.22;;;31.05;;
22449;SDS011;11392;57.390;-2.468;2022-11-15T01:22:17;52.15;;;31.35;;
22449;SDS011;11392;57.390;-2.468;2022-11-15T01:24:44;41.05;;;26.92;;
22449;SDS011;11392;57.390;-2.468;2022-11-15T01:27:11;48.35;;;29.95;;
22449;SDS011;11392;57.390;-2.468;2022-11-15T01:29:38;49.33;;;30.00;;
22449;SDS011;11392;57.390;-2.468;2022-11-15T01:32:05;48.60;;;29.55;;
22449;SDS011;11392;57.390;-2.468;2022-11-15T01:34:32;50.60;;;30.08;;
22449;SDS011;11392;57.390;-2.468;2022-11-15T01:37:00;50.55;;;31.02;;
22449;SDS011;11392;57.390;-2.468;2022-11-15T01:39:27;52.42;;;31.17;;
22449;SDS011;11392;57.390;-2.468;2022-11-15T01:41:54;52.65;;;30.85;;
22449;SDS011;11392;57.390;-2.468;2022-11-15T01:46:58;54.85;;;32.88;;
22449;SDS011;11392;57.390;-2.468;2022-11-15T01:49:29;55.65;;;34.22;;
22449;SDS011;11392;57.390;-2.468;2022-11-15T01:51:58;55.00;;;31.85;;
22449;SDS011;11392;57.390;-2.468;2022-11-15T01:54:28;54.60;;;33.30;;
22449;SDS011;11392;57.390;-2.468;2022-11-15T01:56:57;55.35;;;34.20;;
22449;SDS011;11392;57.390;-2.468;2022-11-15T01:59:30;60.50;;;34.63;;
22449;SDS011;11392;57.390;-2.468;2022-11-15T02:01:57;56.58;;;34.28;;
22449;SDS011;11392;57.390;-2.468;2022-11-15T02:06:53;64.40;;;36.70;;
22449;SDS011;11392;57.390;-2.468;2022-11-15T02:09:20;58.67;;;32.90;;
22449;SDS011;11392;57.390;-2.468;2022-11-15T02:11:47;58.42;;;34.40;;
22449;SDS011;11392;57.390;-2.468;2022-11-15T02:14:15;57.45;;;33.67;;
22449;SDS011;11392;57.390;-2.468;2022-11-15T02:37:07;55.03;;;34.42;;
22449;SDS011;11392;57.390;-2.468;2022-11-15T02:42:26;56.80;;;31.62;;
22449;SDS011;11392;57.390;-2.468;2022-11-15T02:45:23;52.20;;;32.20;;
22449;SDS011;11392;57.390;-2.468;2022-11-15T02:47:54;63.70;;;34.70;;
22449;SDS011;11392;57.390;-2.468;2022-11-15T02:50:26;59.65;;;33.85;;
22449;SDS011;11392;57.390;-2.468;2022-11-15T02:52:55;61.75;;;35.42;;
22449;SDS011;11392;57.390;-2.468;2022-11-15T02:55:32;60.25;;;34.08;;
22449;SDS011;11392;57.390;-2.468;2022-11-15T03:12:23;57.40;;;30.17;;
22449;SDS011;11392;57.390;-2.468;2022-11-15T03:15:36;62.95;;;33.65;;
22449;SDS011;11392;57.390;-2.468;2022-11-15T03:18:00;52.22;;;30.02;;
22449;SDS011;11392;57.390;-2.468;2022-11-15T03:20:30;51.15;;;32.85;;
22449;SDS011;11392;57.390;-2.468;2022-11-15T03:23:08;53.92;;;30.45;;
22449;SDS011;11392;57.390;-2.468;2022-11-15T03:25:41;52.45;;;30.60;;
22449;SDS011;11392;57.390;-2.468;2022-11-15T03:28:20;48.95;;;29.45;;
22449;SDS011;11392;57.390;-2.468;2022-11-15T03:30:51;54.22;;;30.58;;
22449;SDS011;11392;57.390;-2.468;2022-11-15T03:33:21;45.38;;;30.65;;
22449;SDS011;11392;57.390;-2.468;2022-11-15T03:35:48;54.17;;;30.80;;
22449;SDS011;11392;57.390;-2.468;2022-11-15T03:38:24;48.22;;;30.05;;
22449;SDS011;11392;57.390;-2.468;2022-11-15T03:40:59;52.33;;;31.87;;
22449;SDS011;11392;57.390;-2.468;2022-11-15T03:46:03;45.78;;;28.30;;
22449;SDS011;11392;57.390;-2.468;2022-11-15T03:48:39;44.80;;;29.25;;
22449;SDS011;11392;57.390;-2.468;2022-11-15T03:51:09;54.20;;;30.75;;
22449;SDS011;11392;57.390;-2.468;2022-11-15T03:53:37;53.65;;;31.90;;
22449;SDS011;11392;57.390;-2.468;2022-11-15T03:56:04;50.42;;;30.48;;
22449;SDS011;11392;57.390;-2.468;2022-11-15T03:58:31;43.80;;;29.77;;
22449;SDS011;11392;57.390;-2.468;2022-11-15T04:00:58;52.15;;;30.77;;
22449;SDS011;11392;57.390;-2.468;2022-11-15T04:03:25;58.30;;;34.00;;
22449;SDS011;11392;57.390;-2.468;2022-11-15T04:05:52;55.40;;;32.47;;
22449;SDS011;11392;57.390;-2.468;2022-11-15T04:08:19;55.88;;;32.75;;
22449;SDS011;11392;57.390;-2.468;2022-11-15T04:10:48;50.90;;;31.98;;
22449;SDS011;11392;57.390;-2.468;2022-11-15T04:13:15;51.40;;;32.22;;
22449;SDS011;11392;57.390;-2.468;2022-11-15T04:15:42;49.42;;;30.55;;
22449;SDS011;11392;57.390;-2.468;2022-11-15T04:18:09;51.78;;;31.83;;
22449;SDS011;11392;57.390;-2.468;2022-11-15T04:20:36;51.70;;;31.02;;
22449;SDS011;11392;57.390;-2.468;2022-11-15T04:23:22;52.25;;;32.08;;
22449;SDS011;11392;57.390;-2.468;2022-11-15T04:26:09;49.65;;;31.33;;
22449;SDS011;11392;57.390;-2.468;2022-11-15T04:28:39;54.25;;;32.13;;
22449;SDS011;11392;57.390;-2.468;2022-11-15T04:31:26;50.72;;;31.27;;
22449;SDS011;11392;57.390;-2.468;2022-11-15T04:33:53;55.35;;;30.08;;
22449;SDS011;11392;57.390;-2.468;2022-11-15T04:36:21;46.78;;;28.98;;
22449;SDS011;11392;57.390;-2.468;2022-11-15T04:39:06;54.45;;;29.70;;
22449;SDS011;11392;57.390;-2.468;2022-11-15T04:41:33;52.10;;;28.98;;
22449;SDS011;11392;57.390;-2.468;2022-11-15T04:44:00;61.13;;;34.38;;
22449;SDS011;11392;57.390;-2.468;2022-11-15T04:46:27;53.47;;;32.05;;
22449;SDS011;11392;57.390;-2.468;2022-11-15T04:48:55;59.70;;;34.15;;
22449;SDS011;11392;57.390;-2.468;2022-11-15T04:51:24;55.85;;;32.75;;
22449;SDS011;11392;57.390;-2.468;2022-11-15T04:53:51;52.92;;;33.55;;
22449;SDS011;11392;57.390;-2.468;2022-11-15T04:56:18;47.28;;;29.95;;
22449;SDS011;11392;57.390;-2.468;2022-11-15T04:58:48;53.65;;;32.28;;
22449;SDS011;11392;57.390;-2.468;2022-11-15T05:01:16;45.35;;;29.87;;
22449;SDS011;11392;57.390;-2.468;2022-11-15T05:03:43;50.40;;;29.77;;
22449;SDS011;11392;57.390;-2.468;2022-11-15T05:06:29;46.47;;;30.05;;
22449;SDS011;11392;57.390;-2.468;2022-11-15T05:08:56;47.10;;;29.50;;
22449;SDS011;11392;57.390;-2.468;2022-11-15T05:11:23;44.17;;;29.00;;
22449;SDS011;11392;57.390;-2.468;2022-11-15T05:13:50;48.05;;;30.65;;
22449;SDS011;11392;57.390;-2.468;2022-11-15T05:16:17;50.60;;;29.52;;
22449;SDS011;11392;57.390;-2.468;2022-11-15T05:18:45;54.33;;;31.95;;
22449;SDS011;11392;57.390;-2.468;2022-11-15T05:21:13;48.50;;;32.80;;
22449;SDS011;11392;57.390;-2.468;2022-11-15T05:23:41;51.08;;;30.30;;
22449;SDS011;11392;57.390;-2.468;2022-11-15T05:26:08;52.38;;;31.17;;
22449;SDS011;11392;57.390;-2.468;2022-11-15T05:28:36;53.85;;;32.50;;
22449;SDS011;11392;57.390;-2.468;2022-11-15T05:31:04;55.70;;;33.28;;
22449;SDS011;11392;57.390;-2.468;2022-11-15T05:33:36;63.53;;;34.67;;
22449;SDS011;11392;57.390;-2.468;2022-11-15T05:36:07;65.62;;;35.53;;
22449;SDS011;11392;57.390;-2.468;2022-11-15T05:38:46;51.85;;;31.98;;
22449;SDS011;11392;57.390;-2.468;2022-11-15T05:41:15;54.80;;;32.90;;
22449;SDS011;11392;57.390;-2.468;2022-11-15T05:43:45;55.28;;;34.90;;
22449;SDS011;11392;57.390;-2.468;2022-11-15T05:46:13;58.80;;;37.35;;
22449;SDS011;11392;57.390;-2.468;2022-11-15T05:48:41;56.33;;;35.95;;
22449;SDS011;11392;57.390;-2.468;2022-11-15T05:51:12;61.75;;;36.05;;
22449;SDS011;11392;57.390;-2.468;2022-11-15T05:53:41;59.90;;;37.25;;
22449;SDS011;11392;57.390;-2.468;2022-11-15T05:56:09;63.87;;;37.00;;
22449;SDS011;11392;57.390;-2.468;2022-11-15T05:58:36;60.78;;;36.83;;
22449;SDS011;11392;57.390;-2.468;2022-11-15T06:01:04;68.75;;;38.38;;
22449;SDS011;11392;57.390;-2.468;2022-11-15T06:03:31;62.55;;;37.85;;
22449;SDS011;11392;57.390;-2.468;2022-11-15T06:05:59;65.87;;;40.20;;
22449;SDS011;11392;57.390;-2.468;2022-11-15T06:08:25;61.05;;;37.60;;
22449;SDS011;11392;57.390;-2.468;2022-11-15T06:10:53;66.10;;;38.92;;
22449;SDS011;11392;57.390;-2.468;2022-11-15T06:13:20;64.32;;;40.50;;
22449;SDS011;11392;57.390;-2.468;2022-11-15T06:15:47;67.40;;;36.63;;
22449;SDS011;11392;57.390;-2.468;2022-11-15T06:18:14;57.28;;;37.97;;
22449;SDS011;11392;57.390;-2.468;2022-11-15T06:20:41;62.85;;;41.75;;
22449;SDS011;11392;57.390;-2.468;2022-11-15T06:23:08;70.70;;;41.67;;
22449;SDS011;11392;57.390;-2.468;2022-11-15T06:25:35;70.40;;;42.10;;
22449;SDS011;11392;57.390;-2.468;2022-11-15T06:28:02;63.45;;;42.03;;
22449;SDS011;11392;57.390;-2.468;2022-11-15T06:30:29;67.05;;;42.03;;
22449;SDS011;11392;57.390;-2.468;2022-11-15T06:32:59;64.45;;;41.25;;
22449;SDS011;11392;57.390;-2.468;2022-11-15T06:35:28;68.65;;;43.05;;
22449;SDS011;11392;57.390;-2.468;2022-11-15T06:37:55;74.20;;;44.53;;
22449;SDS011;11392;57.390;-2.468;2022-11-15T06:40:27;80.85;;;45.25;;
22449;SDS011;11392;57.390;-2.468;2022-11-15T06:43:00;77.53;;;44.33;;
22449;SDS011;11392;57.390;-2.468;2022-11-15T06:45:28;74.37;;;44.72;;
22449;SDS011;11392;57.390;-2.468;2022-11-15T06:47:55;74.93;;;43.97;;
22449;SDS011;11392;57.390;-2.468;2022-11-15T06:50:22;77.05;;;46.55;;
22449;SDS011;11392;57.390;-2.468;2022-11-15T06:52:49;77.00;;;44.78;;
22449;SDS011;11392;57.390;-2.468;2022-11-15T06:55:17;68.15;;;39.70;;
22449;SDS011;11392;57.390;-2.468;2022-11-15T06:57:50;73.37;;;42.80;;
22449;SDS011;11392;57.390;-2.468;2022-11-15T07:00:19;71.53;;;42.60;;
22449;SDS011;11392;57.390;-2.468;2022-11-15T07:02:47;73.47;;;43.70;;
22449;SDS011;11392;57.390;-2.468;2022-11-15T07:05:14;75.93;;;44.78;;
22449;SDS011;11392;57.390;-2.468;2022-11-15T07:07:42;76.93;;;43.47;;
22449;SDS011;11392;57.390;-2.468;2022-11-15T07:10:09;67.93;;;41.45;;
22449;SDS011;11392;57.390;-2.468;2022-11-15T07:12:36;74.20;;;42.03;;
22449;SDS011;11392;57.390;-2.468;2022-11-15T07:15:03;73.80;;;42.08;;
22449;SDS011;11392;57.390;-2.468;2022-11-15T07:17:30;65.50;;;40.50;;
22449;SDS011;11392;57.390;-2.468;2022-11-15T07:19:58;70.47;;;40.22;;
22449;SDS011;11392;57.390;-2.468;2022-11-15T07:22:24;67.47;;;40.05;;
22449;SDS011;11392;57.390;-2.468;2022-11-15T07:24:51;65.80;;;39.03;;
22449;SDS011;11392;57.390;-2.468;2022-11-15T07:27:18;66.60;;;40.95;;
22449;SDS011;11392;57.390;-2.468;2022-11-15T07:29:46;66.12;;;40.45;;
22449;SDS011;11392;57.390;-2.468;2022-11-15T07:32:13;68.62;;;39.97;;
22449;SDS011;11392;57.390;-2.468;2022-11-15T07:34:40;66.28;;;40.53;;
22449;SDS011;11392;57.390;-2.468;2022-11-15T07:37:07;66.85;;;39.95;;
22449;SDS011;11392;57.390;-2.468;2022-11-15T07:39:34;67.75;;;38.67;;
22449;SDS011;11392;57.390;-2.468;2022-11-15T07:42:01;63.60;;;40.08;;
22449;SDS011;11392;57.390;-2.468;2022-11-15T07:44:46;70.65;;;39.05;;
22449;SDS011;11392;57.390;-2.468;2022-11-15T07:47:13;62.17;;;37.72;;
22449;SDS011;11392;57.390;-2.468;2022-11-15T07:49:40;61.00;;;37.08;;
22449;SDS011;11392;57.390;-2.468;2022-11-15T07:52:07;63.95;;;37.92;;
22449;SDS011;11392;57.390;-2.468;2022-11-15T07:54:34;60.92;;;34.88;;
22449;SDS011;11392;57.390;-2.468;2022-11-15T07:57:01;69.93;;;38.42;;
22449;SDS011;11392;57.390;-2.468;2022-11-15T07:59:33;63.28;;;37.72;;
22449;SDS011;11392;57.390;-2.468;2022-11-15T08:02:01;64.40;;;34.50;;
22449;SDS011;11392;57.390;-2.468;2022-11-15T08:04:28;65.47;;;36.22;;
22449;SDS011;11392;57.390;-2.468;2022-11-15T08:06:55;65.72;;;38.55;;
22449;SDS011;11392;57.390;-2.468;2022-11-15T08:09:23;63.00;;;37.22;;
22449;SDS011;11392;57.390;-2.468;2022-11-15T08:11:50;60.28;;;37.45;;
22449;SDS011;11392;57.390;-2.468;2022-11-15T08:14:17;63.13;;;35.65;;
22449;SDS011;11392;57.390;-2.468;2022-11-15T08:16:44;67.70;;;37.78;;
22449;SDS011;11392;57.390;-2.468;2022-11-15T08:19:11;63.65;;;34.13;;
22449;SDS011;11392;57.390;-2.468;2022-11-15T08:21:38;58.30;;;34.65;;
22449;SDS011;11392;57.390;-2.468;2022-11-15T08:24:05;61.05;;;35.17;;
22449;SDS011;11392;57.390;-2.468;2022-11-15T08:26:34;61.22;;;33.88;;
22449;SDS011;11392;57.390;-2.468;2022-11-15T08:29:01;67.10;;;38.75;;
22449;SDS011;11392;57.390;-2.468;2022-11-15T08:31:28;63.87;;;37.45;;
22449;SDS011;11392;57.390;-2.468;2022-11-15T08:33:55;72.32;;;39.75;;
22449;SDS011;11392;57.390;-2.468;2022-11-15T08:36:22;73.20;;;36.85;;
22449;SDS011;11392;57.390;-2.468;2022-11-15T08:38:49;75.05;;;37.55;;
22449;SDS011;11392;57.390;-2.468;2022-11-15T08:41:23;67.95;;;38.95;;
22449;SDS011;11392;57.390;-2.468;2022-11-15T08:43:53;69.60;;;39.00;;
22449;SDS011;11392;57.390;-2.468;2022-11-15T08:46:20;63.22;;;37.13;;
22449;SDS011;11392;57.390;-2.468;2022-11-15T08:48:48;69.07;;;39.70;;
22449;SDS011;11392;57.390;-2.468;2022-11-15T08:51:15;73.62;;;40.00;;
22449;SDS011;11392;57.390;-2.468;2022-11-15T08:53:42;66.65;;;39.33;;
22449;SDS011;11392;57.390;-2.468;2022-11-15T08:56:10;65.70;;;38.47;;
22449;SDS011;11392;57.390;-2.468;2022-11-15T08:58:38;65.65;;;35.42;;
22449;SDS011;11392;57.390;-2.468;2022-11-15T09:01:05;65.85;;;34.63;;
22449;SDS011;11392;57.390;-2.468;2022-11-15T09:03:33;52.80;;;30.62;;
22449;SDS011;11392;57.390;-2.468;2022-11-15T09:06:00;62.38;;;36.47;;
22449;SDS011;11392;57.390;-2.468;2022-11-15T09:08:30;64.45;;;36.83;;
22449;SDS011;11392;57.390;-2.468;2022-11-15T09:11:14;58.40;;;33.28;;
22449;SDS011;11392;57.390;-2.468;2022-11-15T09:13:42;53.53;;;30.37;;
22449;SDS011;11392;57.390;-2.468;2022-11-15T09:16:09;50.15;;;27.98;;
22449;SDS011;11392;57.390;-2.468;2022-11-15T09:18:38;52.25;;;30.25;;
22449;SDS011;11392;57.390;-2.468;2022-11-15T09:21:05;48.55;;;30.67;;
22449;SDS011;11392;57.390;-2.468;2022-11-15T09:23:32;49.25;;;28.15;;
22449;SDS011;11392;57.390;-2.468;2022-11-15T09:26:00;53.65;;;32.20;;
22449;SDS011;11392;57.390;-2.468;2022-11-15T09:28:29;61.90;;;33.85;;
22449;SDS011;11392;57.390;-2.468;2022-11-15T09:30:57;58.28;;;34.08;;
22449;SDS011;11392;57.390;-2.468;2022-11-15T09:33:29;55.47;;;33.35;;
22449;SDS011;11392;57.390;-2.468;2022-11-15T09:36:04;52.72;;;33.28;;
22449;SDS011;11392;57.390;-2.468;2022-11-15T09:38:35;56.33;;;33.22;;
22449;SDS011;11392;57.390;-2.468;2022-11-15T09:46:31;56.53;;;31.95;;
22449;SDS011;11392;57.390;-2.468;2022-11-15T09:49:03;50.70;;;32.45;;
22449;SDS011;11392;57.390;-2.468;2022-11-15T09:51:32;59.72;;;32.72;;
22449;SDS011;11392;57.390;-2.468;2022-11-15T09:56:55;57.45;;;32.63;;
22449;SDS011;11392;57.390;-2.468;2022-11-15T10:02:53;61.17;;;33.50;;
22449;SDS011;11392;57.390;-2.468;2022-11-15T10:05:44;57.25;;;35.63;;
22449;SDS011;11392;57.390;-2.468;2022-11-15T10:11:07;56.83;;;33.90;;
22449;SDS011;11392;57.390;-2.468;2022-11-15T10:13:58;59.00;;;33.75;;
22449;SDS011;11392;57.390;-2.468;2022-11-15T10:19:07;61.80;;;35.20;;
22449;SDS011;11392;57.390;-2.468;2022-11-15T10:22:02;69.78;;;37.70;;
22449;SDS011;11392;57.390;-2.468;2022-11-15T10:25:21;56.17;;;32.55;;
22449;SDS011;11392;57.390;-2.468;2022-11-15T10:28:03;55.95;;;34.55;;
22449;SDS011;11392;57.390;-2.468;2022-11-15T10:30:34;65.03;;;33.17;;
22449;SDS011;11392;57.390;-2.468;2022-11-15T10:43:44;54.55;;;29.10;;
22449;SDS011;11392;57.390;-2.468;2022-11-15T10:46:22;56.60;;;30.95;;
22449;SDS011;11392;57.390;-2.468;2022-11-15T10:49:18;58.28;;;32.05;;
22449;SDS011;11392;57.390;-2.468;2022-11-15T10:51:53;58.97;;;30.95;;
22449;SDS011;11392;57.390;-2.468;2022-11-15T10:57:16;59.30;;;33.50;;
22449;SDS011;11392;57.390;-2.468;2022-11-15T10:59:49;56.22;;;31.02;;
22449;SDS011;11392;57.390;-2.468;2022-11-15T11:02:32;56.00;;;32.13;;
22449;SDS011;11392;57.390;-2.468;2022-11-15T11:05:01;52.45;;;28.60;;
22449;SDS011;11392;57.390;-2.468;2022-11-15T11:07:31;56.55;;;31.73;;
22449;SDS011;11392;57.390;-2.468;2022-11-15T11:10:02;53.53;;;32.40;;
22449;SDS011;11392;57.390;-2.468;2022-11-15T11:12:48;61.63;;;34.03;;
22449;SDS011;11392;57.390;-2.468;2022-11-15T11:15:15;52.22;;;30.10;;
22449;SDS011;11392;57.390;-2.468;2022-11-15T11:20:39;56.45;;;29.30;;
22449;SDS011;11392;57.390;-2.468;2022-11-15T11:23:20;55.35;;;32.80;;
22449;SDS011;11392;57.390;-2.468;2022-11-15T11:31:35;51.55;;;28.38;;
22449;SDS011;11392;57.390;-2.468;2022-11-15T11:45:24;46.17;;;26.08;;
22449;SDS011;11392;57.390;-2.468;2022-11-15T11:48:23;43.80;;;23.83;;
22449;SDS011;11392;57.390;-2.468;2022-11-15T11:50:52;43.50;;;24.63;;
22449;SDS011;11392;57.390;-2.468;2022-11-15T11:56:11;31.48;;;19.90;;
22449;SDS011;11392;57.390;-2.468;2022-11-15T11:58:50;34.50;;;19.20;;
22449;SDS011;11392;57.390;-2.468;2022-11-15T12:01:23;30.20;;;17.48;;
22449;SDS011;11392;57.390;-2.468;2022-11-15T12:06:53;26.33;;;15.18;;
22449;SDS011;11392;57.390;-2.468;2022-11-15T12:09:33;21.65;;;12.73;;
22449;SDS011;11392;57.390;-2.468;2022-11-15T12:17:36;12.57;;;8.15;;
22449;SDS011;11392;57.390;-2.468;2022-11-15T12:20:06;14.20;;;9.18;;
22449;SDS011;11392;57.390;-2.468;2022-11-15T12:22:58;18.50;;;10.10;;
22449;SDS011;11392;57.390;-2.468;2022-11-15T12:31:37;20.20;;;9.57;;
22449;SDS011;11392;57.390;-2.468;2022-11-15T12:36:47;20.83;;;8.55;;
22449;SDS011;11392;57.390;-2.468;2022-11-15T12:39:15;16.73;;;7.47;;
22449;SDS011;11392;57.390;-2.468;2022-11-15T12:41:44;18.67;;;5.68;;
22449;SDS011;11392;57.390;-2.468;2022-11-15T12:47:23;10.85;;;4.45;;
22449;SDS011;11392;57.390;-2.468;2022-11-15T12:49:52;13.02;;;4.28;;
22449;SDS011;11392;57.390;-2.468;2022-11-15T12:52:19;9.25;;;4.40;;
22449;SDS011;11392;57.390;-2.468;2022-11-15T12:54:51;9.60;;;3.62;;
22449;SDS011;11392;57.390;-2.468;2022-11-15T12:57:28;12.30;;;5.55;;
22449;SDS011;11392;57.390;-2.468;2022-11-15T13:02:33;8.93;;;4.32;;
22449;SDS011;11392;57.390;-2.468;2022-11-15T13:17:53;8.80;;;3.97;;
22449;SDS011;11392;57.390;-2.468;2022-11-15T13:20:29;9.15;;;3.83;;
22449;SDS011;11392;57.390;-2.468;2022-11-15T13:30:54;17.17;;;5.05;;
22449;SDS011;11392;57.390;-2.468;2022-11-15T13:33:34;10.13;;;3.95;;
22449;SDS011;11392;57.390;-2.468;2022-11-15T13:36:12;11.63;;;4.82;;
22449;SDS011;11392;57.390;-2.468;2022-11-15T13:38:40;14.65;;;4.57;;
22449;SDS011;11392;57.390;-2.468;2022-11-15T13:41:14;10.80;;;4.60;;
22449;SDS011;11392;57.390;-2.468;2022-11-15T13:43:48;15.73;;;6.72;;
22449;SDS011;11392;57.390;-2.468;2022-11-15T13:48:58;19.48;;;5.72;;
22449;SDS011;11392;57.390;-2.468;2022-11-15T13:57:24;15.20;;;6.43;;
22449;SDS011;11392;57.390;-2.468;2022-11-15T13:59:54;13.68;;;4.72;;
22449;SDS011;11392;57.390;-2.468;2022-11-15T14:02:42;14.25;;;5.75;;
22449;SDS011;11392;57.390;-2.468;2022-11-15T14:05:14;20.67;;;6.25;;
22449;SDS011;11392;57.390;-2.468;2022-11-15T14:07:53;19.98;;;5.62;;
22449;SDS011;11392;57.390;-2.468;2022-11-15T14:10:27;21.87;;;7.53;;
22449;SDS011;11392;57.390;-2.468;2022-11-15T14:12:57;19.25;;;6.97;;
22449;SDS011;11392;57.390;-2.468;2022-11-15T14:15:29;21.50;;;7.50;;
22449;SDS011;11392;57.390;-2.468;2022-11-15T14:17:56;18.05;;;6.87;;
22449;SDS011;11392;57.390;-2.468;2022-11-15T14:20:31;16.30;;;6.03;;
22449;SDS011;11392;57.390;-2.468;2022-11-15T14:23:19;19.25;;;7.07;;
22449;SDS011;11392;57.390;-2.468;2022-11-15T14:25:56;21.52;;;6.32;;
22449;SDS011;11392;57.390;-2.468;2022-11-15T14:30:53;19.90;;;6.25;;
22449;SDS011;11392;57.390;-2.468;2022-11-15T14:33:34;22.08;;;6.78;;
22449;SDS011;11392;57.390;-2.468;2022-11-15T14:38:37;20.80;;;7.05;;
22449;SDS011;11392;57.390;-2.468;2022-11-15T14:41:05;17.33;;;6.50;;
22449;SDS011;11392;57.390;-2.468;2022-11-15T14:43:32;14.25;;;4.53;;
22449;SDS011;11392;57.390;-2.468;2022-11-15T14:45:59;14.95;;;5.85;;
22449;SDS011;11392;57.390;-2.468;2022-11-15T14:48:26;15.50;;;5.78;;
22449;SDS011;11392;57.390;-2.468;2022-11-15T14:50:53;16.25;;;5.18;;
22449;SDS011;11392;57.390;-2.468;2022-11-15T14:53:20;13.88;;;6.10;;
22449;SDS011;11392;57.390;-2.468;2022-11-15T14:55:48;17.87;;;5.82;;
22449;SDS011;11392;57.390;-2.468;2022-11-15T14:58:15;17.65;;;6.25;;
22449;SDS011;11392;57.390;-2.468;2022-11-15T15:00:42;14.87;;;4.75;;
22449;SDS011;11392;57.390;-2.468;2022-11-15T15:03:09;22.48;;;6.37;;
22449;SDS011;11392;57.390;-2.468;2022-11-15T15:05:38;15.77;;;4.97;;
22449;SDS011;11392;57.390;-2.468;2022-11-15T15:08:10;20.33;;;4.32;;
22449;SDS011;11392;57.390;-2.468;2022-11-15T15:10:42;18.98;;;4.35;;
22449;SDS011;11392;57.390;-2.468;2022-11-15T15:13:20;20.52;;;5.55;;
22449;SDS011;11392;57.390;-2.468;2022-11-15T15:15:49;22.98;;;5.60;;
22449;SDS011;11392;57.390;-2.468;2022-11-15T15:18:17;9.15;;;3.65;;
22449;SDS011;11392;57.390;-2.468;2022-11-15T15:20:47;14.63;;;3.80;;
22449;SDS011;11392;57.390;-2.468;2022-11-15T15:23:20;14.48;;;3.87;;
22449;SDS011;11392;57.390;-2.468;2022-11-15T15:25:49;15.38;;;4.40;;
22449;SDS011;11392;57.390;-2.468;2022-11-15T15:28:16;10.45;;;3.67;;
22449;SDS011;11392;57.390;-2.468;2022-11-15T15:30:43;17.37;;;4.65;;
22449;SDS011;11392;57.390;-2.468;2022-11-15T15:33:10;24.63;;;4.62;;
22449;SDS011;11392;57.390;-2.468;2022-11-15T15:35:37;14.87;;;3.90;;
22449;SDS011;11392;57.390;-2.468;2022-11-15T15:38:05;21.90;;;4.50;;
22449;SDS011;11392;57.390;-2.468;2022-11-15T15:40:32;14.95;;;4.20;;
22449;SDS011;11392;57.390;-2.468;2022-11-15T15:42:59;11.57;;;2.97;;
22449;SDS011;11392;57.390;-2.468;2022-11-15T15:45:26;23.40;;;4.78;;
22449;SDS011;11392;57.390;-2.468;2022-11-15T15:47:54;14.20;;;3.42;;
22449;SDS011;11392;57.390;-2.468;2022-11-15T15:52:50;13.70;;;3.12;;
22449;SDS011;11392;57.390;-2.468;2022-11-15T15:55:19;17.12;;;3.55;;
22449;SDS011;11392;57.390;-2.468;2022-11-15T15:57:47;11.63;;;2.70;;
22449;SDS011;11392;57.390;-2.468;2022-11-15T16:00:14;9.65;;;2.90;;
22449;SDS011;11392;57.390;-2.468;2022-11-15T16:02:42;11.55;;;3.40;;
22449;SDS011;11392;57.390;-2.468;2022-11-15T16:05:10;12.00;;;2.40;;
22449;SDS011;11392;57.390;-2.468;2022-11-15T16:07:37;10.05;;;2.47;;
22449;SDS011;11392;57.390;-2.468;2022-11-15T16:10:19;7.47;;;2.08;;
22449;SDS011;11392;57.390;-2.468;2022-11-15T16:12:55;11.55;;;2.95;;
22449;SDS011;11392;57.390;-2.468;2022-11-15T16:15:25;8.43;;;2.28;;
22449;SDS011;11392;57.390;-2.468;2022-11-15T16:17:54;6.62;;;1.90;;
22449;SDS011;11392;57.390;-2.468;2022-11-15T16:20:44;9.90;;;2.05;;
22449;SDS011;11392;57.390;-2.468;2022-11-15T16:23:16;7.40;;;2.40;;
22449;SDS011;11392;57.390;-2.468;2022-11-15T16:25:50;11.27;;;1.83;;
22449;SDS011;11392;57.390;-2.468;2022-11-15T16:31:00;12.88;;;3.12;;
22449;SDS011;11392;57.390;-2.468;2022-11-15T16:33:33;10.77;;;3.12;;
22449;SDS011;11392;57.390;-2.468;2022-11-15T16:36:02;7.15;;;2.30;;
22449;SDS011;11392;57.390;-2.468;2022-11-15T16:38:30;7.60;;;2.10;;
22449;SDS011;11392;57.390;-2.468;2022-11-15T16:40:57;9.13;;;2.70;;
22449;SDS011;11392;57.390;-2.468;2022-11-15T16:43:25;11.48;;;2.75;;
22449;SDS011;11392;57.390;-2.468;2022-11-15T16:45:52;8.90;;;1.73;;
22449;SDS011;11392;57.390;-2.468;2022-11-15T16:48:21;9.63;;;2.80;;
22449;SDS011;11392;57.390;-2.468;2022-11-15T16:50:54;6.78;;;2.05;;
22449;SDS011;11392;57.390;-2.468;2022-11-15T16:53:23;11.68;;;2.05;;
22449;SDS011;11392;57.390;-2.468;2022-11-15T16:55:50;12.27;;;1.70;;
22449;SDS011;11392;57.390;-2.468;2022-11-15T16:58:17;5.20;;;1.90;;
22449;SDS011;11392;57.390;-2.468;2022-11-15T17:00:44;8.70;;;2.15;;
22449;SDS011;11392;57.390;-2.468;2022-11-15T17:03:15;10.65;;;2.95;;
22449;SDS011;11392;57.390;-2.468;2022-11-15T17:05:42;13.20;;;2.92;;
22449;SDS011;11392;57.390;-2.468;2022-11-15T17:08:09;10.55;;;2.65;;
22449;SDS011;11392;57.390;-2.468;2022-11-15T17:10:37;14.10;;;2.90;;
22449;SDS011;11392;57.390;-2.468;2022-11-15T17:13:10;10.48;;;2.30;;